Terminal Aerodrome Forecast
Issued by NWS Twin Cities, MN

Home | Current Version | Previous Version | Graphics & Text | Print | Product List | Glossary On
Versions: 1 2 3 4 5 6 7 8 9 10 11 12 13 14 15 16 17 18
000
FTUS43 KMPX 290200 AAA
TAFEAU
TAF AMD
KEAU 290253Z 2903/2924 28015G22KT P6SM VCSH SCT015 BKN025 OVC040
     FM290800 29012KT P6SM SCT010 BKN015 OVC040
     FM291600 30008KT P6SM OVC025
     FM292100 28007KT P6SM BKN035=

USA.gov is the U.S. government's official web portal to all federal, state and local government web resources and services.